<?xml version="1.0" encoding="UTF-8" standalone="no" ?>
<gpx xmlns="http://www.topografix.com/GPX/1/1" xmlns:xsi="http://www.w3.org/2001/XMLSchema-instance" xsi:schemaLocation="http://www.topografix.com/GPX/1/1 http://www.topografix.com/GPX/1/1/gpx.xsd" version="1.1" creator="VisuGPX - https://www.visugpx.com">
  <metadata>
    <name>La Bardenas Reales</name>
  </metadata>
  <trk>
    <name><![CDATA[4 - Landazuria]]></name>
    <extensions>
      <line xmlns="http://www.topografix.com/GPX/gpx_style/0/2">
        <color>0080ff</color>
        <opacity>0.5</opacity>
        <width>12</width>
      </line>
    </extensions>
    <trkseg>
      <trkpt lat="42.2064" lon="-1.58592">
        <ele>477</ele>
        <time>2010-10-31T14:41:52Z</time>
      </trkpt>
      <trkpt lat="42.2065" lon="-1.58594">
        <ele>477</ele>
        <time>2010-10-31T14:41:55Z</time>
      </trkpt>
      <trkpt lat="42.20685" lon="-1.5857">
        <ele>476</ele>
        <time>2010-10-31T14:42:08Z</time>
      </trkpt>
      <trkpt lat="42.20752" lon="-1.58552">
        <ele>468</ele>
        <time>2010-10-31T14:42:30Z</time>
      </trkpt>
      <trkpt lat="42.2082" lon="-1.58519">
        <ele>458</ele>
        <time>2010-10-31T14:42:55Z</time>
      </trkpt>
      <trkpt lat="42.2086" lon="-1.58513">
        <ele>455</ele>
        <time>2010-10-31T14:43:08Z</time>
      </trkpt>
      <trkpt lat="42.20893" lon="-1.58504">
        <ele>453</ele>
        <time>2010-10-31T14:43:18Z</time>
      </trkpt>
      <trkpt lat="42.20959" lon="-1.58432">
        <ele>447</ele>
        <time>2010-10-31T14:43:48Z</time>
      </trkpt>
      <trkpt lat="42.21019" lon="-1.58393">
        <ele>436</ele>
        <time>2010-10-31T14:44:09Z</time>
      </trkpt>
      <trkpt lat="42.2107" lon="-1.58371">
        <ele>425</ele>
        <time>2010-10-31T14:44:28Z</time>
      </trkpt>
      <trkpt lat="42.21072" lon="-1.58371">
        <ele>425</ele>
        <time>2010-10-31T14:44:28Z</time>
      </trkpt>
      <trkpt lat="42.21109" lon="-1.58374">
        <ele>422</ele>
        <time>2010-10-31T14:44:41Z</time>
      </trkpt>
      <trkpt lat="42.21156" lon="-1.58367">
        <ele>417</ele>
        <time>2010-10-31T14:44:57Z</time>
      </trkpt>
      <trkpt lat="42.21187" lon="-1.58346">
        <ele>411</ele>
        <time>2010-10-31T14:45:08Z</time>
      </trkpt>
      <trkpt lat="42.21225" lon="-1.58354">
        <ele>411</ele>
        <time>2010-10-31T14:45:20Z</time>
      </trkpt>
      <trkpt lat="42.21312" lon="-1.58392">
        <ele>401</ele>
        <time>2010-10-31T14:45:51Z</time>
      </trkpt>
      <trkpt lat="42.21381" lon="-1.58416">
        <ele>400</ele>
        <time>2010-10-31T14:46:15Z</time>
      </trkpt>
      <trkpt lat="42.21412" lon="-1.58405">
        <ele>402</ele>
        <time>2010-10-31T14:46:26Z</time>
      </trkpt>
      <trkpt lat="42.21469" lon="-1.58415">
        <ele>404</ele>
        <time>2010-10-31T14:46:45Z</time>
      </trkpt>
      <trkpt lat="42.21576" lon="-1.58379">
        <ele>392</ele>
        <time>2010-10-31T14:47:21Z</time>
      </trkpt>
      <trkpt lat="42.21601" lon="-1.58368">
        <ele>388</ele>
        <time>2010-10-31T14:47:31Z</time>
      </trkpt>
      <trkpt lat="42.21675" lon="-1.58387">
        <ele>386</ele>
        <time>2010-10-31T14:47:55Z</time>
      </trkpt>
      <trkpt lat="42.21785" lon="-1.58403">
        <ele>378</ele>
        <time>2010-10-31T14:48:32Z</time>
      </trkpt>
      <trkpt lat="42.21839" lon="-1.5842">
        <ele>375</ele>
        <time>2010-10-31T14:48:51Z</time>
      </trkpt>
      <trkpt lat="42.21889" lon="-1.58393">
        <ele>374</ele>
        <time>2010-10-31T14:49:08Z</time>
      </trkpt>
      <trkpt lat="42.2196" lon="-1.58307">
        <ele>366</ele>
        <time>2010-10-31T14:49:40Z</time>
      </trkpt>
      <trkpt lat="42.22004" lon="-1.58278">
        <ele>361</ele>
        <time>2010-10-31T14:49:56Z</time>
      </trkpt>
      <trkpt lat="42.22007" lon="-1.58276">
        <ele>361</ele>
        <time>2010-10-31T14:49:58Z</time>
      </trkpt>
      <trkpt lat="42.22201" lon="-1.58179">
        <ele>366</ele>
        <time>2010-10-31T14:51:06Z</time>
      </trkpt>
      <trkpt lat="42.22223" lon="-1.5816">
        <ele>368</ele>
        <time>2010-10-31T14:51:16Z</time>
      </trkpt>
      <trkpt lat="42.22256" lon="-1.58104">
        <ele>370</ele>
        <time>2010-10-31T14:51:33Z</time>
      </trkpt>
      <trkpt lat="42.22276" lon="-1.58078">
        <ele>373</ele>
        <time>2010-10-31T14:51:43Z</time>
      </trkpt>
      <trkpt lat="42.22277" lon="-1.58077">
        <ele>373</ele>
        <time>2010-10-31T14:51:43Z</time>
      </trkpt>
      <trkpt lat="42.22302" lon="-1.58055">
        <ele>375</ele>
        <time>2010-10-31T14:51:52Z</time>
      </trkpt>
      <trkpt lat="42.22343" lon="-1.58034">
        <ele>377</ele>
        <time>2010-10-31T14:52:08Z</time>
      </trkpt>
      <trkpt lat="42.22423" lon="-1.57933">
        <ele>384</ele>
        <time>2010-10-31T14:52:43Z</time>
      </trkpt>
      <trkpt lat="42.22505" lon="-1.57868">
        <ele>393</ele>
        <time>2010-10-31T14:53:16Z</time>
      </trkpt>
      <trkpt lat="42.2255" lon="-1.57817">
        <ele>393</ele>
        <time>2010-10-31T14:53:36Z</time>
      </trkpt>
      <trkpt lat="42.22615" lon="-1.57777">
        <ele>388</ele>
        <time>2010-10-31T14:53:58Z</time>
      </trkpt>
      <trkpt lat="42.22693" lon="-1.57727">
        <ele>370</ele>
        <time>2010-10-31T14:54:28Z</time>
      </trkpt>
      <trkpt lat="42.2272" lon="-1.57728">
        <ele>365</ele>
        <time>2010-10-31T14:54:36Z</time>
      </trkpt>
      <trkpt lat="42.22812" lon="-1.5778">
        <ele>352</ele>
        <time>2010-10-31T14:55:11Z</time>
      </trkpt>
      <trkpt lat="42.22855" lon="-1.57795">
        <ele>349</ele>
        <time>2010-10-31T14:55:24Z</time>
      </trkpt>
      <trkpt lat="42.22922" lon="-1.57833">
        <ele>348</ele>
        <time>2010-10-31T14:55:49Z</time>
      </trkpt>
      <trkpt lat="42.23013" lon="-1.57841">
        <ele>345</ele>
        <time>2010-10-31T14:56:20Z</time>
      </trkpt>
      <trkpt lat="42.23174" lon="-1.57848">
        <ele>335</ele>
        <time>2010-10-31T14:57:14Z</time>
      </trkpt>
      <trkpt lat="42.23311" lon="-1.57846">
        <ele>332</ele>
        <time>2010-10-31T14:57:58Z</time>
      </trkpt>
      <trkpt lat="42.23481" lon="-1.57853">
        <ele>333</ele>
        <time>2010-10-31T14:58:56Z</time>
      </trkpt>
      <trkpt lat="42.23558" lon="-1.57846">
        <ele>334</ele>
        <time>2010-10-31T14:59:21Z</time>
      </trkpt>
      <trkpt lat="42.23622" lon="-1.57827">
        <ele>333</ele>
        <time>2010-10-31T14:59:42Z</time>
      </trkpt>
      <trkpt lat="42.23738" lon="-1.57795">
        <ele>335</ele>
        <time>2010-10-31T15:00:23Z</time>
      </trkpt>
      <trkpt lat="42.2375" lon="-1.578">
        <ele>335</ele>
        <time>2010-10-31T15:00:26Z</time>
      </trkpt>
      <trkpt lat="42.23787" lon="-1.58127">
        <ele>337</ele>
        <time>2010-10-31T15:01:49Z</time>
      </trkpt>
      <trkpt lat="42.23793" lon="-1.58209">
        <ele>334</ele>
        <time>2010-10-31T15:02:08Z</time>
      </trkpt>
      <trkpt lat="42.23824" lon="-1.58325">
        <ele>335</ele>
        <time>2010-10-31T15:02:40Z</time>
      </trkpt>
      <trkpt lat="42.23835" lon="-1.58384">
        <ele>336</ele>
        <time>2010-10-31T15:02:54Z</time>
      </trkpt>
      <trkpt lat="42.23851" lon="-1.58438">
        <ele>337</ele>
        <time>2010-10-31T15:03:09Z</time>
      </trkpt>
      <trkpt lat="42.23872" lon="-1.58655">
        <ele>340</ele>
        <time>2010-10-31T15:04:03Z</time>
      </trkpt>
      <trkpt lat="42.23889" lon="-1.58816">
        <ele>341</ele>
        <time>2010-10-31T15:04:44Z</time>
      </trkpt>
      <trkpt lat="42.23909" lon="-1.58962">
        <ele>343</ele>
        <time>2010-10-31T15:05:21Z</time>
      </trkpt>
      <trkpt lat="42.23909" lon="-1.58964">
        <ele>343</ele>
        <time>2010-10-31T15:05:21Z</time>
      </trkpt>
      <trkpt lat="42.23917" lon="-1.59052">
        <ele>342</ele>
        <time>2010-10-31T15:05:43Z</time>
      </trkpt>
      <trkpt lat="42.23921" lon="-1.59132">
        <ele>340</ele>
        <time>2010-10-31T15:06:02Z</time>
      </trkpt>
      <trkpt lat="42.23939" lon="-1.59179">
        <ele>340</ele>
        <time>2010-10-31T15:06:16Z</time>
      </trkpt>
      <trkpt lat="42.23942" lon="-1.59217">
        <ele>340</ele>
        <time>2010-10-31T15:06:25Z</time>
      </trkpt>
      <trkpt lat="42.23938" lon="-1.59325">
        <ele>342</ele>
        <time>2010-10-31T15:06:52Z</time>
      </trkpt>
      <trkpt lat="42.23939" lon="-1.59343">
        <ele>342</ele>
        <time>2010-10-31T15:06:56Z</time>
      </trkpt>
      <trkpt lat="42.23982" lon="-1.59502">
        <ele>345</ele>
        <time>2010-10-31T15:07:38Z</time>
      </trkpt>
      <trkpt lat="42.23996" lon="-1.59615">
        <ele>345</ele>
        <time>2010-10-31T15:08:06Z</time>
      </trkpt>
      <trkpt lat="42.24001" lon="-1.59677">
        <ele>344</ele>
        <time>2010-10-31T15:08:21Z</time>
      </trkpt>
      <trkpt lat="42.24013" lon="-1.59719">
        <ele>341</ele>
        <time>2010-10-31T15:08:33Z</time>
      </trkpt>
      <trkpt lat="42.24024" lon="-1.59735">
        <ele>341</ele>
        <time>2010-10-31T15:08:38Z</time>
      </trkpt>
      <trkpt lat="42.24048" lon="-1.59746">
        <ele>341</ele>
        <time>2010-10-31T15:08:46Z</time>
      </trkpt>
      <trkpt lat="42.24107" lon="-1.59791">
        <ele>340</ele>
        <time>2010-10-31T15:09:10Z</time>
      </trkpt>
      <trkpt lat="42.24158" lon="-1.59813">
        <ele>339</ele>
        <time>2010-10-31T15:09:28Z</time>
      </trkpt>
      <trkpt lat="42.24179" lon="-1.59835">
        <ele>338</ele>
        <time>2010-10-31T15:09:36Z</time>
      </trkpt>
      <trkpt lat="42.24261" lon="-1.5994">
        <ele>344</ele>
        <time>2010-10-31T15:10:14Z</time>
      </trkpt>
      <trkpt lat="42.24309" lon="-1.59985">
        <ele>343</ele>
        <time>2010-10-31T15:10:34Z</time>
      </trkpt>
      <trkpt lat="42.24335" lon="-1.60015">
        <ele>344</ele>
        <time>2010-10-31T15:10:44Z</time>
      </trkpt>
      <trkpt lat="42.24372" lon="-1.60032">
        <ele>345</ele>
        <time>2010-10-31T15:10:57Z</time>
      </trkpt>
      <trkpt lat="42.24403" lon="-1.60033">
        <ele>348</ele>
        <time>2010-10-31T15:11:09Z</time>
      </trkpt>
      <trkpt lat="42.24405" lon="-1.60033">
        <ele>348</ele>
        <time>2010-10-31T15:11:09Z</time>
      </trkpt>
      <trkpt lat="42.24436" lon="-1.60023">
        <ele>348</ele>
        <time>2010-10-31T15:11:19Z</time>
      </trkpt>
      <trkpt lat="42.24458" lon="-1.60011">
        <ele>348</ele>
        <time>2010-10-31T15:11:28Z</time>
      </trkpt>
      <trkpt lat="42.24489" lon="-1.60016">
        <ele>347</ele>
        <time>2010-10-31T15:11:38Z</time>
      </trkpt>
      <trkpt lat="42.24512" lon="-1.60039">
        <ele>347</ele>
        <time>2010-10-31T15:11:48Z</time>
      </trkpt>
      <trkpt lat="42.24513" lon="-1.60041">
        <ele>347</ele>
        <time>2010-10-31T15:11:48Z</time>
      </trkpt>
      <trkpt lat="42.24555" lon="-1.60055">
        <ele>341</ele>
        <time>2010-10-31T15:12:03Z</time>
      </trkpt>
      <trkpt lat="42.24575" lon="-1.60062">
        <ele>340</ele>
        <time>2010-10-31T15:12:10Z</time>
      </trkpt>
      <trkpt lat="42.24583" lon="-1.60076">
        <ele>337</ele>
        <time>2010-10-31T15:12:13Z</time>
      </trkpt>
      <trkpt lat="42.24588" lon="-1.60121">
        <ele>335</ele>
        <time>2010-10-31T15:12:24Z</time>
      </trkpt>
      <trkpt lat="42.24589" lon="-1.60124">
        <ele>335</ele>
        <time>2010-10-31T15:12:26Z</time>
      </trkpt>
      <trkpt lat="42.24609" lon="-1.60209">
        <ele>331</ele>
        <time>2010-10-31T15:12:48Z</time>
      </trkpt>
      <trkpt lat="42.24616" lon="-1.60265">
        <ele>330</ele>
        <time>2010-10-31T15:13:01Z</time>
      </trkpt>
      <trkpt lat="42.24616" lon="-1.60268">
        <ele>330</ele>
        <time>2010-10-31T15:13:03Z</time>
      </trkpt>
      <trkpt lat="42.24607" lon="-1.60314">
        <ele>329</ele>
        <time>2010-10-31T15:13:14Z</time>
      </trkpt>
      <trkpt lat="42.24594" lon="-1.6037">
        <ele>326</ele>
        <time>2010-10-31T15:13:29Z</time>
      </trkpt>
      <trkpt lat="42.24595" lon="-1.60406">
        <ele>323</ele>
        <time>2010-10-31T15:13:38Z</time>
      </trkpt>
      <trkpt lat="42.24614" lon="-1.60488">
        <ele>317</ele>
        <time>2010-10-31T15:13:58Z</time>
      </trkpt>
      <trkpt lat="42.24637" lon="-1.60517">
        <ele>315</ele>
        <time>2010-10-31T15:14:09Z</time>
      </trkpt>
      <trkpt lat="42.24645" lon="-1.60596">
        <ele>315</ele>
        <time>2010-10-31T15:14:30Z</time>
      </trkpt>
      <trkpt lat="42.24645" lon="-1.60648">
        <ele>316</ele>
        <time>2010-10-31T15:14:43Z</time>
      </trkpt>
      <trkpt lat="42.24632" lon="-1.60716">
        <ele>316</ele>
        <time>2010-10-31T15:14:59Z</time>
      </trkpt>
      <trkpt lat="42.24642" lon="-1.60742">
        <ele>316</ele>
        <time>2010-10-31T15:15:07Z</time>
      </trkpt>
      <trkpt lat="42.24697" lon="-1.60844">
        <ele>315</ele>
        <time>2010-10-31T15:15:37Z</time>
      </trkpt>
      <trkpt lat="42.24698" lon="-1.60845">
        <ele>315</ele>
        <time>2010-10-31T15:15:39Z</time>
      </trkpt>
      <trkpt lat="42.24722" lon="-1.6093">
        <ele>317</ele>
        <time>2010-10-31T15:16:01Z</time>
      </trkpt>
      <trkpt lat="42.24756" lon="-1.61051">
        <ele>317</ele>
        <time>2010-10-31T15:16:33Z</time>
      </trkpt>
      <trkpt lat="42.24759" lon="-1.61109">
        <ele>318</ele>
        <time>2010-10-31T15:16:47Z</time>
      </trkpt>
      <trkpt lat="42.24748" lon="-1.61158">
        <ele>320</ele>
        <time>2010-10-31T15:17:00Z</time>
      </trkpt>
      <trkpt lat="42.24747" lon="-1.61196">
        <ele>322</ele>
        <time>2010-10-31T15:17:09Z</time>
      </trkpt>
      <trkpt lat="42.24766" lon="-1.61303">
        <ele>323</ele>
        <time>2010-10-31T15:17:36Z</time>
      </trkpt>
      <trkpt lat="42.24794" lon="-1.6146">
        <ele>324</ele>
        <time>2010-10-31T15:18:16Z</time>
      </trkpt>
      <trkpt lat="42.24838" lon="-1.61705">
        <ele>320</ele>
        <time>2010-10-31T15:19:18Z</time>
      </trkpt>
      <trkpt lat="42.24855" lon="-1.618">
        <ele>319</ele>
        <time>2010-10-31T15:19:42Z</time>
      </trkpt>
      <trkpt lat="42.24855" lon="-1.61804">
        <ele>319</ele>
        <time>2010-10-31T15:19:44Z</time>
      </trkpt>
      <trkpt lat="42.24861" lon="-1.6185">
        <ele>322</ele>
        <time>2010-10-31T15:19:55Z</time>
      </trkpt>
      <trkpt lat="42.24869" lon="-1.61901">
        <ele>323</ele>
        <time>2010-10-31T15:20:09Z</time>
      </trkpt>
      <trkpt lat="42.24868" lon="-1.61997">
        <ele>321</ele>
        <time>2010-10-31T15:20:33Z</time>
      </trkpt>
      <trkpt lat="42.24859" lon="-1.62088">
        <ele>319</ele>
        <time>2010-10-31T15:20:55Z</time>
      </trkpt>
      <trkpt lat="42.24833" lon="-1.62202">
        <ele>320</ele>
        <time>2010-10-31T15:21:24Z</time>
      </trkpt>
      <trkpt lat="42.24829" lon="-1.62274">
        <ele>319</ele>
        <time>2010-10-31T15:21:43Z</time>
      </trkpt>
      <trkpt lat="42.24833" lon="-1.62348">
        <ele>321</ele>
        <time>2010-10-31T15:22:01Z</time>
      </trkpt>
      <trkpt lat="42.24831" lon="-1.62365">
        <ele>321</ele>
        <time>2010-10-31T15:22:05Z</time>
      </trkpt>
      <trkpt lat="42.24826" lon="-1.62371">
        <ele>321</ele>
        <time>2010-10-31T15:22:07Z</time>
      </trkpt>
      <trkpt lat="42.24809" lon="-1.62369">
        <ele>321</ele>
        <time>2010-10-31T15:22:12Z</time>
      </trkpt>
      <trkpt lat="42.24761" lon="-1.62393">
        <ele>322</ele>
        <time>2010-10-31T15:22:29Z</time>
      </trkpt>
      <trkpt lat="42.24721" lon="-1.62406">
        <ele>323</ele>
        <time>2010-10-31T15:22:44Z</time>
      </trkpt>
      <trkpt lat="42.24668" lon="-1.624">
        <ele>319</ele>
        <time>2010-10-31T15:23:01Z</time>
      </trkpt>
      <trkpt lat="42.24582" lon="-1.62402">
        <ele>326</ele>
        <time>2010-10-31T15:23:30Z</time>
      </trkpt>
      <trkpt lat="42.24499" lon="-1.624">
        <ele>329</ele>
        <time>2010-10-31T15:23:57Z</time>
      </trkpt>
      <trkpt lat="42.24455" lon="-1.624">
        <ele>328</ele>
        <time>2010-10-31T15:24:13Z</time>
      </trkpt>
      <trkpt lat="42.24418" lon="-1.62426">
        <ele>327</ele>
        <time>2010-10-31T15:24:27Z</time>
      </trkpt>
      <trkpt lat="42.24359" lon="-1.62469">
        <ele>326</ele>
        <time>2010-10-31T15:24:48Z</time>
      </trkpt>
      <trkpt lat="42.24321" lon="-1.62501">
        <ele>324</ele>
        <time>2010-10-31T15:25:04Z</time>
      </trkpt>
      <trkpt lat="42.24177" lon="-1.62587">
        <ele>317</ele>
        <time>2010-10-31T15:25:56Z</time>
      </trkpt>
      <trkpt lat="42.24153" lon="-1.62608">
        <ele>317</ele>
        <time>2010-10-31T15:26:06Z</time>
      </trkpt>
      <trkpt lat="42.24092" lon="-1.62612">
        <ele>323</ele>
        <time>2010-10-31T15:26:26Z</time>
      </trkpt>
      <trkpt lat="42.24092" lon="-1.62612">
        <ele>323</ele>
        <time>2010-10-31T15:26:26Z</time>
      </trkpt>
      <trkpt lat="42.24059" lon="-1.6262">
        <ele>326</ele>
        <time>2010-10-31T15:26:36Z</time>
      </trkpt>
      <trkpt lat="42.24004" lon="-1.62689">
        <ele>329</ele>
        <time>2010-10-31T15:27:02Z</time>
      </trkpt>
      <trkpt lat="42.23993" lon="-1.62697">
        <ele>329</ele>
        <time>2010-10-31T15:27:06Z</time>
      </trkpt>
      <trkpt lat="42.23982" lon="-1.62683">
        <ele>331</ele>
        <time>2010-10-31T15:27:11Z</time>
      </trkpt>
      <trkpt lat="42.23945" lon="-1.6262">
        <ele>329</ele>
        <time>2010-10-31T15:27:32Z</time>
      </trkpt>
      <trkpt lat="42.23679" lon="-1.62182">
        <ele>337</ele>
        <time>2010-10-31T15:29:50Z</time>
      </trkpt>
      <trkpt lat="42.23624" lon="-1.62107">
        <ele>332</ele>
        <time>2010-10-31T15:30:16Z</time>
      </trkpt>
      <trkpt lat="42.23425" lon="-1.61841">
        <ele>344</ele>
        <time>2010-10-31T15:31:51Z</time>
      </trkpt>
      <trkpt lat="42.23366" lon="-1.61772">
        <ele>345</ele>
        <time>2010-10-31T15:32:17Z</time>
      </trkpt>
      <trkpt lat="42.23338" lon="-1.61729">
        <ele>345</ele>
        <time>2010-10-31T15:32:31Z</time>
      </trkpt>
      <trkpt lat="42.23313" lon="-1.61666">
        <ele>346</ele>
        <time>2010-10-31T15:32:49Z</time>
      </trkpt>
      <trkpt lat="42.23297" lon="-1.61608">
        <ele>345</ele>
        <time>2010-10-31T15:33:04Z</time>
      </trkpt>
      <trkpt lat="42.23286" lon="-1.61547">
        <ele>346</ele>
        <time>2010-10-31T15:33:20Z</time>
      </trkpt>
      <trkpt lat="42.23261" lon="-1.61486">
        <ele>351</ele>
        <time>2010-10-31T15:33:36Z</time>
      </trkpt>
      <trkpt lat="42.23253" lon="-1.61477">
        <ele>351</ele>
        <time>2010-10-31T15:33:39Z</time>
      </trkpt>
      <trkpt lat="42.2324" lon="-1.6148">
        <ele>351</ele>
        <time>2010-10-31T15:33:44Z</time>
      </trkpt>
      <trkpt lat="42.23157" lon="-1.61519">
        <ele>360</ele>
        <time>2010-10-31T15:34:14Z</time>
      </trkpt>
      <trkpt lat="42.23108" lon="-1.61535">
        <ele>370</ele>
        <time>2010-10-31T15:34:30Z</time>
      </trkpt>
      <trkpt lat="42.23071" lon="-1.61535">
        <ele>373</ele>
        <time>2010-10-31T15:34:43Z</time>
      </trkpt>
      <trkpt lat="42.23045" lon="-1.61544">
        <ele>377</ele>
        <time>2010-10-31T15:34:51Z</time>
      </trkpt>
      <trkpt lat="42.23037" lon="-1.61562">
        <ele>376</ele>
        <time>2010-10-31T15:34:56Z</time>
      </trkpt>
      <trkpt lat="42.23009" lon="-1.61576">
        <ele>375</ele>
        <time>2010-10-31T15:35:07Z</time>
      </trkpt>
      <trkpt lat="42.22965" lon="-1.61599">
        <ele>374</ele>
        <time>2010-10-31T15:35:23Z</time>
      </trkpt>
      <trkpt lat="42.22942" lon="-1.61587">
        <ele>374</ele>
        <time>2010-10-31T15:35:31Z</time>
      </trkpt>
      <trkpt lat="42.22865" lon="-1.61568">
        <ele>372</ele>
        <time>2010-10-31T15:35:56Z</time>
      </trkpt>
      <trkpt lat="42.22826" lon="-1.6155">
        <ele>377</ele>
        <time>2010-10-31T15:36:11Z</time>
      </trkpt>
      <trkpt lat="42.22792" lon="-1.61548">
        <ele>384</ele>
        <time>2010-10-31T15:36:22Z</time>
      </trkpt>
      <trkpt lat="42.22763" lon="-1.61556">
        <ele>398</ele>
        <time>2010-10-31T15:36:31Z</time>
      </trkpt>
      <trkpt lat="42.22681" lon="-1.61585">
        <ele>411</ele>
        <time>2010-10-31T15:37:00Z</time>
      </trkpt>
      <trkpt lat="42.22659" lon="-1.61594">
        <ele>414</ele>
        <time>2010-10-31T15:37:08Z</time>
      </trkpt>
      <trkpt lat="42.22634" lon="-1.61609">
        <ele>417</ele>
        <time>2010-10-31T15:37:16Z</time>
      </trkpt>
      <trkpt lat="42.22618" lon="-1.61623">
        <ele>417</ele>
        <time>2010-10-31T15:37:22Z</time>
      </trkpt>
      <trkpt lat="42.22607" lon="-1.61639">
        <ele>417</ele>
        <time>2010-10-31T15:37:29Z</time>
      </trkpt>
      <trkpt lat="42.22595" lon="-1.61638">
        <ele>416</ele>
        <time>2010-10-31T15:37:32Z</time>
      </trkpt>
      <trkpt lat="42.22577" lon="-1.6161">
        <ele>416</ele>
        <time>2010-10-31T15:37:41Z</time>
      </trkpt>
      <trkpt lat="42.22576" lon="-1.61609">
        <ele>416</ele>
        <time>2010-10-31T15:37:41Z</time>
      </trkpt>
      <trkpt lat="42.22553" lon="-1.61535">
        <ele>416</ele>
        <time>2010-10-31T15:38:02Z</time>
      </trkpt>
      <trkpt lat="42.22542" lon="-1.61512">
        <ele>417</ele>
        <time>2010-10-31T15:38:09Z</time>
      </trkpt>
      <trkpt lat="42.22506" lon="-1.61465">
        <ele>423</ele>
        <time>2010-10-31T15:38:26Z</time>
      </trkpt>
      <trkpt lat="42.22467" lon="-1.61413">
        <ele>430</ele>
        <time>2010-10-31T15:38:44Z</time>
      </trkpt>
      <trkpt lat="42.22433" lon="-1.61381">
        <ele>433</ele>
        <time>2010-10-31T15:38:58Z</time>
      </trkpt>
      <trkpt lat="42.22413" lon="-1.61365">
        <ele>439</ele>
        <time>2010-10-31T15:39:04Z</time>
      </trkpt>
      <trkpt lat="42.22375" lon="-1.61344">
        <ele>440</ele>
        <time>2010-10-31T15:39:19Z</time>
      </trkpt>
      <trkpt lat="42.22341" lon="-1.61319">
        <ele>431</ele>
        <time>2010-10-31T15:39:31Z</time>
      </trkpt>
      <trkpt lat="42.2234" lon="-1.61319">
        <ele>431</ele>
        <time>2010-10-31T15:39:31Z</time>
      </trkpt>
      <trkpt lat="42.22317" lon="-1.61294">
        <ele>424</ele>
        <time>2010-10-31T15:39:42Z</time>
      </trkpt>
      <trkpt lat="42.22242" lon="-1.61157">
        <ele>418</ele>
        <time>2010-10-31T15:40:24Z</time>
      </trkpt>
      <trkpt lat="42.22228" lon="-1.61131">
        <ele>418</ele>
        <time>2010-10-31T15:40:32Z</time>
      </trkpt>
      <trkpt lat="42.22118" lon="-1.60957">
        <ele>429</ele>
        <time>2010-10-31T15:41:29Z</time>
      </trkpt>
      <trkpt lat="42.22091" lon="-1.60934">
        <ele>431</ele>
        <time>2010-10-31T15:41:40Z</time>
      </trkpt>
      <trkpt lat="42.22055" lon="-1.60881">
        <ele>433</ele>
        <time>2010-10-31T15:41:56Z</time>
      </trkpt>
      <trkpt lat="42.22025" lon="-1.60814">
        <ele>433</ele>
        <time>2010-10-31T15:42:17Z</time>
      </trkpt>
      <trkpt lat="42.22011" lon="-1.60781">
        <ele>436</ele>
        <time>2010-10-31T15:42:25Z</time>
      </trkpt>
      <trkpt lat="42.21969" lon="-1.60725">
        <ele>438</ele>
        <time>2010-10-31T15:42:46Z</time>
      </trkpt>
      <trkpt lat="42.2195" lon="-1.6067">
        <ele>437</ele>
        <time>2010-10-31T15:43:00Z</time>
      </trkpt>
      <trkpt lat="42.21933" lon="-1.60636">
        <ele>436</ele>
        <time>2010-10-31T15:43:11Z</time>
      </trkpt>
      <trkpt lat="42.21909" lon="-1.6061">
        <ele>435</ele>
        <time>2010-10-31T15:43:21Z</time>
      </trkpt>
      <trkpt lat="42.2189" lon="-1.60594">
        <ele>434</ele>
        <time>2010-10-31T15:43:29Z</time>
      </trkpt>
      <trkpt lat="42.21861" lon="-1.60545">
        <ele>433</ele>
        <time>2010-10-31T15:43:44Z</time>
      </trkpt>
      <trkpt lat="42.21794" lon="-1.60436">
        <ele>442</ele>
        <time>2010-10-31T15:44:19Z</time>
      </trkpt>
      <trkpt lat="42.21757" lon="-1.60367">
        <ele>449</ele>
        <time>2010-10-31T15:44:40Z</time>
      </trkpt>
      <trkpt lat="42.21749" lon="-1.60355">
        <ele>449</ele>
        <time>2010-10-31T15:44:43Z</time>
      </trkpt>
      <trkpt lat="42.21741" lon="-1.60335">
        <ele>452</ele>
        <time>2010-10-31T15:44:50Z</time>
      </trkpt>
      <trkpt lat="42.21705" lon="-1.60293">
        <ele>451</ele>
        <time>2010-10-31T15:45:06Z</time>
      </trkpt>
      <trkpt lat="42.21665" lon="-1.60238">
        <ele>452</ele>
        <time>2010-10-31T15:45:25Z</time>
      </trkpt>
      <trkpt lat="42.21633" lon="-1.60186">
        <ele>448</ele>
        <time>2010-10-31T15:45:42Z</time>
      </trkpt>
      <trkpt lat="42.21599" lon="-1.60143">
        <ele>451</ele>
        <time>2010-10-31T15:45:57Z</time>
      </trkpt>
      <trkpt lat="42.21563" lon="-1.60091">
        <ele>452</ele>
        <time>2010-10-31T15:46:14Z</time>
      </trkpt>
      <trkpt lat="42.21545" lon="-1.60048">
        <ele>452</ele>
        <time>2010-10-31T15:46:27Z</time>
      </trkpt>
      <trkpt lat="42.21528" lon="-1.60021">
        <ele>452</ele>
        <time>2010-10-31T15:46:36Z</time>
      </trkpt>
      <trkpt lat="42.21509" lon="-1.59993">
        <ele>451</ele>
        <time>2010-10-31T15:46:44Z</time>
      </trkpt>
      <trkpt lat="42.2149" lon="-1.59956">
        <ele>451</ele>
        <time>2010-10-31T15:46:55Z</time>
      </trkpt>
      <trkpt lat="42.21468" lon="-1.59936">
        <ele>450</ele>
        <time>2010-10-31T15:47:05Z</time>
      </trkpt>
      <trkpt lat="42.21447" lon="-1.59896">
        <ele>450</ele>
        <time>2010-10-31T15:47:16Z</time>
      </trkpt>
      <trkpt lat="42.21409" lon="-1.59854">
        <ele>451</ele>
        <time>2010-10-31T15:47:34Z</time>
      </trkpt>
      <trkpt lat="42.21349" lon="-1.59745">
        <ele>460</ele>
        <time>2010-10-31T15:48:07Z</time>
      </trkpt>
      <trkpt lat="42.21318" lon="-1.59706">
        <ele>462</ele>
        <time>2010-10-31T15:48:21Z</time>
      </trkpt>
      <trkpt lat="42.21277" lon="-1.59657">
        <ele>461</ele>
        <time>2010-10-31T15:48:40Z</time>
      </trkpt>
      <trkpt lat="42.21227" lon="-1.59601">
        <ele>457</ele>
        <time>2010-10-31T15:49:00Z</time>
      </trkpt>
      <trkpt lat="42.21186" lon="-1.59551">
        <ele>457</ele>
        <time>2010-10-31T15:49:19Z</time>
      </trkpt>
      <trkpt lat="42.21159" lon="-1.595">
        <ele>457</ele>
        <time>2010-10-31T15:49:35Z</time>
      </trkpt>
      <trkpt lat="42.21158" lon="-1.59498">
        <ele>457</ele>
        <time>2010-10-31T15:49:35Z</time>
      </trkpt>
      <trkpt lat="42.21133" lon="-1.59438">
        <ele>458</ele>
        <time>2010-10-31T15:49:52Z</time>
      </trkpt>
      <trkpt lat="42.21132" lon="-1.59436">
        <ele>458</ele>
        <time>2010-10-31T15:49:54Z</time>
      </trkpt>
      <trkpt lat="42.21115" lon="-1.5939">
        <ele>459</ele>
        <time>2010-10-31T15:50:06Z</time>
      </trkpt>
      <trkpt lat="42.21115" lon="-1.59388">
        <ele>459</ele>
        <time>2010-10-31T15:50:07Z</time>
      </trkpt>
      <trkpt lat="42.21101" lon="-1.59367">
        <ele>460</ele>
        <time>2010-10-31T15:50:13Z</time>
      </trkpt>
      <trkpt lat="42.21068" lon="-1.59325">
        <ele>458</ele>
        <time>2010-10-31T15:50:29Z</time>
      </trkpt>
      <trkpt lat="42.21046" lon="-1.59284">
        <ele>459</ele>
        <time>2010-10-31T15:50:41Z</time>
      </trkpt>
      <trkpt lat="42.2101" lon="-1.59227">
        <ele>461</ele>
        <time>2010-10-31T15:50:59Z</time>
      </trkpt>
      <trkpt lat="42.21009" lon="-1.59226">
        <ele>461</ele>
        <time>2010-10-31T15:50:59Z</time>
      </trkpt>
      <trkpt lat="42.20969" lon="-1.59146">
        <ele>462</ele>
        <time>2010-10-31T15:51:23Z</time>
      </trkpt>
      <trkpt lat="42.20939" lon="-1.59083">
        <ele>464</ele>
        <time>2010-10-31T15:51:42Z</time>
      </trkpt>
      <trkpt lat="42.20924" lon="-1.5906">
        <ele>465</ele>
        <time>2010-10-31T15:51:50Z</time>
      </trkpt>
      <trkpt lat="42.20903" lon="-1.59009">
        <ele>467</ele>
        <time>2010-10-31T15:52:04Z</time>
      </trkpt>
      <trkpt lat="42.20885" lon="-1.5896">
        <ele>468</ele>
        <time>2010-10-31T15:52:17Z</time>
      </trkpt>
      <trkpt lat="42.2087" lon="-1.58916">
        <ele>468</ele>
        <time>2010-10-31T15:52:30Z</time>
      </trkpt>
      <trkpt lat="42.20844" lon="-1.58886">
        <ele>468</ele>
        <time>2010-10-31T15:52:42Z</time>
      </trkpt>
      <trkpt lat="42.20812" lon="-1.5884">
        <ele>467</ele>
        <time>2010-10-31T15:52:57Z</time>
      </trkpt>
      <trkpt lat="42.20794" lon="-1.58818">
        <ele>465</ele>
        <time>2010-10-31T15:53:05Z</time>
      </trkpt>
      <trkpt lat="42.20765" lon="-1.58772">
        <ele>465</ele>
        <time>2010-10-31T15:53:19Z</time>
      </trkpt>
      <trkpt lat="42.20764" lon="-1.58772">
        <ele>465</ele>
        <time>2010-10-31T15:53:21Z</time>
      </trkpt>
      <trkpt lat="42.2074" lon="-1.5873">
        <ele>467</ele>
        <time>2010-10-31T15:53:33Z</time>
      </trkpt>
      <trkpt lat="42.20739" lon="-1.58729">
        <ele>467</ele>
        <time>2010-10-31T15:53:33Z</time>
      </trkpt>
      <trkpt lat="42.20738" lon="-1.58727">
        <ele>467</ele>
        <time>2010-10-31T15:53:35Z</time>
      </trkpt>
      <trkpt lat="42.20698" lon="-1.58655">
        <ele>473</ele>
        <time>2010-10-31T15:53:56Z</time>
      </trkpt>
      <trkpt lat="42.2068" lon="-1.58629">
        <ele>474</ele>
        <time>2010-10-31T15:54:05Z</time>
      </trkpt>
      <trkpt lat="42.20679" lon="-1.58629">
        <ele>474</ele>
        <time>2010-10-31T15:54:05Z</time>
      </trkpt>
      <trkpt lat="42.20654" lon="-1.58614">
        <ele>476</ele>
        <time>2010-10-31T15:54:15Z</time>
      </trkpt>
      <trkpt lat="42.2064" lon="-1.58602">
        <ele>475</ele>
        <time>2010-10-31T15:54:21Z</time>
        <extensions>
          <visugpx:TrkExtension xmlns:visugpx="https://www.visugpx.com/editgpx/">
            <visugpx:node>1</visugpx:node>
            </visugpx:TrkExtension>
        </extensions>
      </trkpt>
    </trkseg>
  </trk>
</gpx>